Time;durP1;ratioP1;P1;durP2;ratioP2;P2;SDS_P1;SDS_P2;PMS_P1;PMS_P2;Temp;Humidity;BMP_temperature;BMP_pressure;BME280_temperature;BME280_humidity;BME280_pressure;Samples;Min_cycle;Max_cycle;Signal;HPM_P1;HPM_P2
2021/12/13 00:00:31;;;;;;;17.02;12.05;;;22.20;80.90;;;;;;1823060;77;21671;-78
2021/12/13 00:03:03;;;;;;;21.37;14.55;;;22.20;80.70;;;;;;1821927;78;21104;-79
2021/12/13 00:05:35;;;;;;;24.07;15.45;;;22.20;80.90;;;;;;1821198;78;21646;-79
2021/12/13 00:08:08;;;;;;;23.10;15.43;;;22.20;80.90;;;;;;1821869;79;21582;-79
2021/12/13 00:10:41;;;;;;;22.45;14.68;;;22.20;80.80;;;;;;1844903;77;21140;-79
2021/12/13 00:13:14;;;;;;;22.35;14.53;;;22.20;81.00;;;;;;1880256;74;21159;-79
2021/12/13 00:15:48;;;;;;;18.87;12.43;;;22.20;80.90;;;;;;1864295;76;21179;-79
2021/12/13 00:18:21;;;;;;;19.42;12.37;;;22.20;80.90;;;;;;1855115;76;21140;-79
2021/12/13 00:20:54;;;;;;;19.62;13.62;;;22.20;80.80;;;;;;1861788;76;21856;-79
2021/12/13 00:23:25;;;;;;;18.85;13.28;;;22.20;80.90;;;;;;1867183;76;21121;-79
2021/12/13 00:25:58;;;;;;;18.95;12.45;;;22.20;81.00;;;;;;1843960;77;21091;-80
2021/12/13 00:28:32;;;;;;;26.20;15.43;;;22.20;80.80;;;;;;1854699;76;21596;-79
2021/12/13 00:31:05;;;;;;;23.15;14.78;;;22.20;81.10;;;;;;1863635;76;21608;-80
2021/12/13 00:33:38;;;;;;;27.00;15.18;;;22.20;81.10;;;;;;1847294;76;21660;-79
2021/12/13 00:36:11;;;;;;;22.35;14.87;;;22.20;80.80;;;;;;1852797;76;21144;-79
2021/12/13 00:38:44;;;;;;;21.37;13.70;;;22.30;80.50;;;;;;1848075;77;21124;-79
2021/12/13 00:41:18;;;;;;;16.87;12.82;;;22.30;80.70;;;;;;1862019;76;21265;-79
2021/12/13 00:43:51;;;;;;;17.23;12.43;;;22.30;80.70;;;;;;1851510;76;21066;-79
2021/12/13 00:46:23;;;;;;;24.40;12.68;;;22.30;80.60;;;;;;1879166;76;21119;-79
2021/12/13 00:48:57;;;;;;;23.07;13.08;;;22.30;80.50;;;;;;1864132;76;21639;-79
2021/12/13 00:51:30;;;;;;;24.15;12.80;;;22.40;80.30;;;;;;1862144;76;21084;-79
2021/12/13 00:54:03;;;;;;;17.87;13.18;;;22.40;80.30;;;;;;1864047;75;21134;-79
2021/12/13 00:56:36;;;;;;;22.17;12.90;;;22.40;80.30;;;;;;1846290;78;21173;-79
2021/12/13 00:59:10;;;;;;;22.05;14.25;;;22.40;80.10;;;;;;1845807;76;21224;-80
2021/12/13 01:01:42;;;;;;;19.30;14.00;;;22.40;79.90;;;;;;1845810;76;21216;-80
2021/12/13 01:04:15;;;;;;;22.32;14.07;;;22.50;79.80;;;;;;1843348;76;21598;-79
2021/12/13 01:06:48;;;;;;;21.70;13.78;;;22.50;79.80;;;;;;1850735;77;21760;-79
2021/12/13 01:09:19;;;;;;;19.70;13.70;;;22.60;79.50;;;;;;1850450;76;21130;-79
2021/12/13 01:11:51;;;;;;;24.07;15.08;;;22.60;79.60;;;;;;1847316;78;21704;-79
2021/12/13 01:14:30;;;;;;;19.90;14.58;;;22.70;79.30;;;;;;1858982;76;21215;-79
2021/12/13 01:17:12;;;;;;;20.15;14.87;;;22.70;78.80;;;;;;1808246;78;21249;-79
2021/12/13 01:19:47;;;;;;;27.00;16.87;;;22.80;78.80;;;;;;1843694;76;21167;-79
2021/12/13 01:22:27;;;;;;;21.25;15.50;;;22.80;78.20;;;;;;1831670;76;21178;-73
2021/12/13 01:25:14;;;;;;;24.85;16.42;;;22.90;78.10;;;;;;1847028;76;21181;-71
2021/12/13 01:27:11;;;;;;;21.48;15.65;;;22.90;77.90;;;;;;1808767;78;21225;-72
2021/12/13 01:29:43;;;;;;;23.30;15.55;;;22.90;77.50;;;;;;1848831;76;21197;-71
2021/12/13 01:32:16;;;;;;;23.05;16.00;;;23.00;77.60;;;;;;1840807;76;21122;-71
2021/12/13 01:34:47;;;;;;;21.00;15.13;;;23.00;77.10;;;;;;1838357;76;21189;-71
2021/12/13 01:37:18;;;;;;;25.60;14.93;;;23.10;77.10;;;;;;1842333;76;21130;-71
2021/12/13 01:39:51;;;;;;;25.25;17.52;;;23.10;76.90;;;;;;1841269;76;21261;-71
2021/12/13 01:42:24;;;;;;;22.10;16.67;;;23.20;76.50;;;;;;1843432;76;21148;-71
2021/12/13 01:44:58;;;;;;;22.32;17.07;;;23.20;76.10;;;;;;1837275;76;21157;-70
2021/12/13 01:47:31;;;;;;;22.50;16.60;;;23.20;75.50;;;;;;1865282;76;21165;-70
2021/12/13 01:50:05;;;;;;;22.13;16.75;;;23.20;75.40;;;;;;1851388;76;21542;-72
2021/12/13 01:52:38;;;;;;;22.22;17.30;;;23.20;75.30;;;;;;1860550;76;21606;-71
2021/12/13 01:55:11;;;;;;;23.05;16.50;;;23.30;75.10;;;;;;1844457;76;21101;-71
2021/12/13 01:57:55;;;;;;;23.77;17.30;;;23.30;74.30;;;;;;1846247;76;21122;-72
2021/12/13 02:00:18;;;;;;;23.45;17.27;;;23.30;74.30;;;;;;1810731;78;21130;-70
2021/12/13 02:02:52;;;;;;;21.00;16.25;;;23.30;74.40;;;;;;1841114;76;21136;-72
2021/12/13 02:05:25;;;;;;;22.58;17.60;;;23.40;74.40;;;;;;1850352;76;21114;-71
2021/12/13 02:07:58;;;;;;;28.20;17.62;;;23.40;73.80;;;;;;1849938;76;21077;-72
2021/12/13 02:10:32;;;;;;;23.73;17.35;;;23.40;73.50;;;;;;1843172;76;21181;-71
2021/12/13 02:13:05;;;;;;;23.35;17.45;;;23.40;73.80;;;;;;1851428;76;21519;-72
2021/12/13 02:18:16;;;;;;;26.02;19.45;;;23.50;73.10;;;;;;1843125;76;21705;-73
2021/12/13 02:20:49;;;;;;;27.35;18.98;;;23.60;72.80;;;;;;1834165;76;21174;-72
2021/12/13 02:23:21;;;;;;;26.52;19.50;;;23.60;72.90;;;;;;1844248;77;21641;-71
2021/12/13 02:25:55;;;;;;;25.40;19.17;;;23.70;72.10;;;;;;1846613;77;22444;-70
2021/12/13 02:28:28;;;;;;;30.72;19.95;;;23.70;72.20;;;;;;1845838;78;21579;-71
2021/12/13 02:31:01;;;;;;;30.30;20.85;;;23.80;71.80;;;;;;1846197;76;21216;-72
2021/12/13 02:33:33;;;;;;;28.73;21.10;;;23.90;71.90;;;;;;1832881;77;21182;-72
2021/12/13 02:36:06;;;;;;;24.85;19.75;;;24.00;71.50;;;;;;1835462;77;21545;-72
2021/12/13 02:38:39;;;;;;;29.65;18.25;;;24.00;71.30;;;;;;1852142;76;21075;-72
2021/12/13 02:41:12;;;;;;;24.55;17.42;;;24.00;71.10;;;;;;1851690;76;21663;-72
2021/12/13 02:43:45;;;;;;;22.70;16.93;;;24.10;69.80;;;;;;1837323;76;21124;-71
2021/12/13 02:46:16;;;;;;;26.48;17.23;;;24.10;70.60;;;;;;1843742;76;21099;-72
2021/12/13 02:48:50;;;;;;;24.07;16.75;;;24.20;70.00;;;;;;1851161;76;22279;-72
2021/12/13 02:51:23;;;;;;;20.65;15.65;;;24.20;69.80;;;;;;1849387;76;21141;-71
2021/12/13 02:53:54;;;;;;;23.90;17.90;;;24.30;68.30;;;;;;1843490;76;21056;-70
2021/12/13 02:56:27;;;;;;;23.75;18.30;;;24.30;68.60;;;;;;1844636;75;21259;-70
2021/12/13 02:59:00;;;;;;;21.60;16.55;;;24.40;69.00;;;;;;1872525;75;21246;-70
2021/12/13 03:01:33;;;;;;;20.65;16.12;;;24.40;68.50;;;;;;1859846;75;21144;-70
2021/12/13 03:04:07;;;;;;;24.15;16.62;;;24.50;68.00;;;;;;1858860;75;21177;-70
2021/12/13 03:06:40;;;;;;;22.77;17.25;;;24.50;66.90;;;;;;1857736;75;21625;-71
2021/12/13 03:09:13;;;;;;;19.80;16.35;;;24.50;66.40;;;;;;1857941;75;21108;-70
2021/12/13 03:11:45;;;;;;;21.48;16.20;;;24.50;66.60;;;;;;1857503;75;21148;-70
2021/12/13 03:14:17;;;;;;;26.73;19.02;;;24.50;66.90;;;;;;1856287;75;21116;-70
2021/12/13 03:16:50;;;;;;;21.23;17.27;;;24.50;66.70;;;;;;1895519;75;21187;-70
2021/12/13 03:19:24;;;;;;;24.02;17.82;;;24.60;66.90;;;;;;1859460;75;21089;-71
2021/12/13 03:21:57;;;;;;;23.62;17.98;;;24.60;67.00;;;;;;1854783;77;21104;-71
2021/12/13 03:24:31;;;;;;;26.25;20.12;;;24.60;66.60;;;;;;1857617;76;21242;-72
2021/12/13 03:27:04;;;;;;;27.13;21.05;;;24.60;66.30;;;;;;1880162;76;21517;-71
2021/12/13 03:29:37;;;;;;;25.82;20.72;;;24.70;66.70;;;;;;1861865;75;21103;-71
2021/12/13 03:32:10;;;;;;;25.52;18.52;;;24.80;66.10;;;;;;1861251;75;21147;-71
2021/12/13 03:34:44;;;;;;;27.85;18.42;;;24.80;66.20;;;;;;1861519;75;21569;-74
2021/12/13 03:37:17;;;;;;;24.15;17.73;;;24.90;66.40;;;;;;1858914;75;21617;-73
2021/12/13 03:39:50;;;;;;;24.77;17.67;;;24.90;65.90;;;;;;1861639;76;21219;-73
2021/12/13 03:42:23;;;;;;;23.50;17.60;;;25.00;65.40;;;;;;1870966;75;21197;-73
2021/12/13 03:44:56;;;;;;;24.00;17.80;;;25.00;65.20;;;;;;1873415;76;21196;-73
2021/12/13 03:47:33;;;;;;;26.00;19.15;;;25.10;65.40;;;;;;1861437;75;21189;-74
2021/12/13 03:50:08;;;;;;;20.52;17.45;;;25.10;65.90;;;;;;1864504;75;21610;-73
2021/12/13 03:52:41;;;;;;;24.70;17.90;;;25.10;64.90;;;;;;1867428;75;21676;-75
2021/12/13 03:55:14;;;;;;;25.65;18.40;;;25.20;64.80;;;;;;1890286;76;21617;-73
2021/12/13 03:57:47;;;;;;;22.90;17.92;;;25.20;65.30;;;;;;1868817;74;21111;-72
2021/12/13 04:00:20;;;;;;;26.52;18.35;;;25.30;66.00;;;;;;1839666;77;21702;-72
2021/12/13 04:02:53;;;;;;;22.02;17.80;;;25.30;66.30;;;;;;1859784;76;21598;-73
2021/12/13 04:05:27;;;;;;;29.77;18.95;;;25.30;65.70;;;;;;1839021;76;21140;-73
2021/12/13 04:08:00;;;;;;;29.23;18.30;;;25.40;64.30;;;;;;1838900;77;21157;-73
2021/12/13 04:10:33;;;;;;;22.98;17.07;;;25.40;64.40;;;;;;1848383;77;21597;-75
2021/12/13 04:13:10;;;;;;;21.45;17.12;;;25.40;63.70;;;;;;1852720;77;21080;-75
2021/12/13 04:15:53;;;;;;;22.73;17.82;;;25.50;62.50;;;;;;1855827;77;21605;-74
2021/12/13 04:18:28;;;;;;;25.70;17.90;;;25.60;62.20;;;;;;1862617;76;21097;-75
2021/12/13 04:20:46;;;;;;;23.60;18.05;;;25.60;63.40;;;;;;1820755;77;21062;-74
2021/12/13 04:23:20;;;;;;;21.55;17.67;;;25.70;61.00;;;;;;1786187;79;21653;-74
2021/12/13 04:25:52;;;;;;;20.88;17.60;;;25.70;60.60;;;;;;1782207;79;21763;-74
2021/12/13 04:28:23;;;;;;;20.92;17.60;;;25.80;60.90;;;;;;1787568;79;21457;-75
2021/12/13 04:30:57;;;;;;;23.83;17.90;;;25.90;60.00;;;;;;1787896;79;21130;-74
2021/12/13 04:33:31;;;;;;;24.75;18.82;;;25.90;60.00;;;;;;1786622;79;21642;-73
2021/12/13 04:36:04;;;;;;;24.98;19.00;;;26.00;59.70;;;;;;1785188;80;21727;-74
2021/12/13 04:38:39;;;;;;;24.85;17.90;;;26.00;59.70;;;;;;1785081;79;21785;-76
2021/12/13 04:41:10;;;;;;;22.32;17.35;;;26.10;60.20;;;;;;1798392;79;21103;-73
2021/12/13 04:43:41;;;;;;;20.45;17.10;;;26.20;60.80;;;;;;1793170;79;21273;-74
2021/12/13 04:46:12;;;;;;;20.32;17.62;;;26.20;58.90;;;;;;1817835;77;21617;-74
2021/12/13 04:48:46;;;;;;;23.95;17.57;;;26.20;59.10;;;;;;1846203;76;21130;-74
2021/12/13 04:51:20;;;;;;;25.08;17.80;;;26.20;59.60;;;;;;1856565;76;21130;-73
2021/12/13 04:53:52;;;;;;;21.37;16.95;;;26.20;59.10;;;;;;1852201;76;21137;-76
2021/12/13 04:56:26;;;;;;;22.25;17.07;;;26.30;58.70;;;;;;1851035;76;21590;-79
2021/12/13 04:58:59;;;;;;;23.18;16.60;;;26.30;59.70;;;;;;1843516;76;21172;-79
2021/12/13 05:01:30;;;;;;;21.02;16.30;;;26.30;59.70;;;;;;1865299;76;21532;-78
2021/12/13 05:04:04;;;;;;;22.02;17.15;;;26.30;59.30;;;;;;1855771;76;21089;-78
2021/12/13 05:06:40;;;;;;;21.23;17.20;;;26.40;60.10;;;;;;1846635;77;21138;-78
2021/12/13 05:09:13;;;;;;;26.17;18.30;;;26.40;59.30;;;;;;1847362;77;21268;-78
2021/12/13 05:11:47;;;;;;;24.18;18.07;;;26.50;59.90;;;;;;1849923;77;21598;-77
2021/12/13 05:14:19;;;;;;;27.32;18.95;;;26.50;60.10;;;;;;1851589;76;21176;-78
2021/12/13 05:16:53;;;;;;;22.58;19.30;;;26.60;59.40;;;;;;1843941;77;21256;-78
2021/12/13 05:19:26;;;;;;;20.95;18.60;;;26.70;58.80;;;;;;1849325;76;21162;-78
2021/12/13 05:21:59;;;;;;;20.55;17.48;;;26.80;58.60;;;;;;1871001;76;21114;-78
2021/12/13 05:24:32;;;;;;;22.50;17.35;;;26.90;58.50;;;;;;1870001;75;21153;-80
2021/12/13 05:27:04;;;;;;;21.57;17.45;;;26.90;57.80;;;;;;1832808;76;21132;-80
2021/12/13 05:29:40;;;;;;;21.85;18.25;;;27.00;57.80;;;;;;1763675;79;21271;-81
2021/12/13 05:32:15;;;;;;;21.48;17.57;;;27.00;57.20;;;;;;1787107;79;21342;-78
2021/12/13 05:34:45;;;;;;;20.72;17.65;;;27.10;56.80;;;;;;1776947;78;21585;-79
2021/12/13 05:37:17;;;;;;;20.92;17.77;;;27.10;56.80;;;;;;1810585;79;21133;-78
2021/12/13 05:39:50;;;;;;;22.05;17.77;;;27.10;57.20;;;;;;1768932;80;21204;-77
2021/12/13 05:42:21;;;;;;;19.17;17.15;;;27.20;56.60;;;;;;1789115;80;21698;-78
2021/12/13 05:44:52;;;;;;;22.75;17.62;;;27.20;57.40;;;;;;1793020;79;21112;-79
2021/12/13 05:47:26;;;;;;;23.80;17.02;;;27.20;57.20;;;;;;1778526;79;21159;-78
2021/12/13 05:49:58;;;;;;;23.02;17.15;;;27.20;56.30;;;;;;1796354;79;21196;-78
2021/12/13 05:52:31;;;;;;;20.25;17.67;;;27.30;56.70;;;;;;1788986;79;21256;-79
2021/12/13 05:55:04;;;;;;;22.35;17.70;;;27.40;56.60;;;;;;1786136;79;21197;-80
2021/12/13 05:57:38;;;;;;;22.35;17.90;;;27.40;56.10;;;;;;1786433;79;21156;-80
2021/12/13 06:00:11;;;;;;;24.80;18.95;;;27.50;56.40;;;;;;1777596;80;21186;-79
2021/12/13 06:02:44;;;;;;;22.65;17.80;;;27.50;56.70;;;;;;1811598;78;21253;-74
2021/12/13 06:05:17;;;;;;;24.35;19.15;;;27.50;55.70;;;;;;1838788;78;21164;-73
2021/12/13 06:07:49;;;;;;;24.25;20.08;;;27.50;56.40;;;;;;1838289;77;21165;-73
2021/12/13 06:10:21;;;;;;;23.83;19.02;;;27.60;56.50;;;;;;1844366;77;21134;-73
2021/12/13 06:12:54;;;;;;;28.52;18.75;;;27.70;56.00;;;;;;1845785;78;21595;-74
2021/12/13 06:15:27;;;;;;;20.35;17.67;;;27.80;55.30;;;;;;1844950;78;21622;-73
2021/12/13 06:18:01;;;;;;;21.20;17.48;;;27.90;55.00;;;;;;1844172;78;21131;-73
2021/12/13 06:20:34;;;;;;;22.25;18.05;;;28.00;55.50;;;;;;1844982;76;21551;-72
2021/12/13 06:23:07;;;;;;;21.02;16.95;;;28.10;55.10;;;;;;1842124;77;22119;-73
2021/12/13 06:25:40;;;;;;;19.73;16.95;;;28.10;54.40;;;;;;1845229;77;21145;-74
2021/12/13 06:28:13;;;;;;;23.77;17.70;;;28.20;54.20;;;;;;1853972;76;21137;-74
2021/12/13 06:30:45;;;;;;;22.07;19.37;;;28.30;54.00;;;;;;1845083;77;21685;-74
2021/12/13 06:33:16;;;;;;;22.22;19.05;;;28.30;54.40;;;;;;1831573;78;21149;-73
2021/12/13 06:35:46;;;;;;;22.60;18.35;;;28.40;54.30;;;;;;1840769;78;21222;-73
2021/12/13 06:38:19;;;;;;;27.98;20.02;;;28.40;53.90;;;;;;1834387;76;21142;-74
2021/12/13 06:40:51;;;;;;;25.32;19.27;;;28.40;54.00;;;;;;1842705;77;21583;-75
2021/12/13 06:43:25;;;;;;;24.77;19.77;;;28.40;54.20;;;;;;1842793;76;22120;-73
2021/12/13 06:45:56;;;;;;;22.98;18.92;;;28.50;54.40;;;;;;1841066;78;21527;-75
2021/12/13 06:48:29;;;;;;;23.47;19.85;;;28.40;53.70;;;;;;1843503;76;22217;-73
2021/12/13 06:51:00;;;;;;;22.48;19.15;;;28.50;54.10;;;;;;1842214;77;21089;-71
2021/12/13 06:53:31;;;;;;;24.45;19.55;;;28.50;54.30;;;;;;1847260;76;21158;-71
2021/12/13 06:56:04;;;;;;;27.70;20.62;;;28.50;55.00;;;;;;1838352;76;21558;-71
2021/12/13 06:58:35;;;;;;;26.45;20.10;;;28.50;55.10;;;;;;1843045;76;21158;-71
2021/12/13 07:01:08;;;;;;;23.45;19.25;;;28.50;54.40;;;;;;1840932;76;21249;-72
2021/12/13 07:03:38;;;;;;;25.12;19.92;;;28.50;54.60;;;;;;1845847;76;21590;-71
2021/12/13 07:06:09;;;;;;;22.55;19.25;;;28.50;54.70;;;;;;1835136;78;21084;-72
2021/12/13 07:08:42;;;;;;;23.18;18.85;;;28.50;54.40;;;;;;1821676;77;21200;-71
2021/12/13 07:11:20;;;;;;;27.85;20.37;;;28.40;53.80;;;;;;1844482;77;21071;-72
2021/12/13 07:13:51;;;;;;;23.65;20.72;;;28.40;54.20;;;;;;1841521;76;21699;-71
2021/12/13 07:16:26;;;;;;;23.77;19.55;;;28.50;54.40;;;;;;1840701;76;21586;-71
2021/12/13 07:19:02;;;;;;;22.32;18.37;;;28.60;54.30;;;;;;1847612;76;21135;-72
2021/12/13 07:21:33;;;;;;;24.18;20.10;;;28.60;54.10;;;;;;1845996;76;21138;-74
2021/12/13 07:24:05;;;;;;;24.35;18.50;;;28.60;53.60;;;;;;1839155;76;21064;-72
2021/12/13 07:26:38;;;;;;;26.10;20.92;;;28.60;53.40;;;;;;1843243;76;21123;-72
2021/12/13 07:29:11;;;;;;;24.70;19.85;;;28.60;53.60;;;;;;1841188;76;21252;-72
2021/12/13 07:31:44;;;;;;;26.35;20.68;;;28.60;53.60;;;;;;1834230;78;21197;-72
2021/12/13 07:34:15;;;;;;;25.82;19.32;;;28.50;53.30;;;;;;1826014;78;21087;-71
2021/12/13 07:36:52;;;;;;;20.80;18.25;;;28.50;53.00;;;;;;1836619;78;21180;-72
2021/12/13 07:39:25;;;;;;;24.67;19.37;;;28.40;53.20;;;;;;1842330;78;22062;-72
2021/12/13 07:41:59;;;;;;;25.88;18.75;;;28.40;52.90;;;;;;1821834;78;21595;-72
2021/12/13 07:44:32;;;;;;;26.40;18.75;;;28.40;53.70;;;;;;1832999;78;21613;-72
2021/12/13 07:47:05;;;;;;;19.65;17.30;;;28.40;53.70;;;;;;1811493;78;21158;-72
2021/12/13 07:49:40;;;;;;;23.83;19.35;;;28.40;53.30;;;;;;1836263;78;21166;-72
2021/12/13 07:52:13;;;;;;;23.77;18.73;;;28.40;53.50;;;;;;1834711;78;21563;-72
2021/12/13 07:54:45;;;;;;;23.45;19.77;;;28.40;53.60;;;;;;1838363;76;21629;-71
2021/12/13 07:57:18;;;;;;;22.00;18.85;;;28.40;53.10;;;;;;1837986;77;21091;-73
2021/12/13 07:59:50;;;;;;;21.62;18.20;;;28.40;53.30;;;;;;1850358;75;21656;-72
2021/12/13 08:02:25;;;;;;;24.12;19.30;;;28.30;53.60;;;;;;1836049;76;21210;-72
2021/12/13 08:04:58;;;;;;;23.07;19.00;;;28.30;53.90;;;;;;1847497;76;21252;-73
2021/12/13 08:07:32;;;;;;;23.65;18.30;;;28.30;53.90;;;;;;1847229;77;21131;-73
2021/12/13 08:10:05;;;;;;;21.95;18.75;;;28.30;53.80;;;;;;1832922;77;21217;-71
2021/12/13 08:12:38;;;;;;;27.10;20.12;;;28.30;54.10;;;;;;1855321;76;21178;-73
2021/12/13 08:15:10;;;;;;;23.87;19.48;;;28.30;54.20;;;;;;1840755;76;21149;-72
2021/12/13 08:17:43;;;;;;;23.87;19.25;;;28.20;53.90;;;;;;1844246;77;21256;-72
2021/12/13 08:20:17;;;;;;;26.02;20.27;;;28.20;54.30;;;;;;1842142;77;21371;-71
2021/12/13 08:22:50;;;;;;;22.35;19.20;;;28.20;54.40;;;;;;1836430;76;21594;-72
2021/12/13 08:25:23;;;;;;;25.02;19.57;;;28.20;54.70;;;;;;1842070;76;21211;-70
2021/12/13 08:27:56;;;;;;;24.37;19.55;;;28.20;54.50;;;;;;1838702;77;21602;-72
2021/12/13 08:30:30;;;;;;;21.60;19.20;;;28.20;54.70;;;;;;1837318;77;21686;-71
2021/12/13 08:33:02;;;;;;;27.42;19.07;;;28.20;54.30;;;;;;1843316;77;21189;-72
2021/12/13 08:35:36;;;;;;;27.13;20.10;;;28.20;54.40;;;;;;1828610;76;21212;-72
2021/12/13 08:38:10;;;;;;;24.57;19.62;;;28.20;54.60;;;;;;1840958;76;21154;-71
2021/12/13 08:40:43;;;;;;;22.77;19.20;;;28.20;54.80;;;;;;1844487;77;21118;-71
2021/12/13 08:43:15;;;;;;;21.97;18.52;;;28.10;54.60;;;;;;1844981;77;21571;-71
2021/12/13 08:45:49;;;;;;;22.20;19.52;;;28.10;54.70;;;;;;1836002;78;21888;-71
2021/12/13 08:48:20;;;;;;;25.55;19.27;;;28.10;54.80;;;;;;1844976;77;21083;-70
2021/12/13 08:50:53;;;;;;;29.02;19.75;;;28.10;54.70;;;;;;1840500;76;21572;-73
2021/12/13 08:53:26;;;;;;;25.40;18.95;;;28.10;55.30;;;;;;1842045;78;21194;-72
2021/12/13 08:55:59;;;;;;;23.12;19.67;;;28.10;55.20;;;;;;1838513;76;21166;-73
2021/12/13 08:58:31;;;;;;;25.23;19.82;;;28.10;55.00;;;;;;1842656;76;21178;-72
2021/12/13 09:01:03;;;;;;;23.85;19.45;;;28.10;54.80;;;;;;1863722;75;21068;-73
2021/12/13 09:03:35;;;;;;;25.75;20.40;;;28.00;54.90;;;;;;1851082;77;21125;-72
2021/12/13 09:06:07;;;;;;;25.57;19.70;;;28.10;55.20;;;;;;1824419;77;21164;-72
2021/12/13 09:08:40;;;;;;;23.10;20.12;;;28.00;55.00;;;;;;1865079;77;21182;-73
2021/12/13 09:11:13;;;;;;;22.17;19.85;;;28.00;54.80;;;;;;1862705;75;21589;-73
2021/12/13 09:13:47;;;;;;;25.57;20.12;;;28.00;54.80;;;;;;1858820;75;21699;-72
2021/12/13 09:16:21;;;;;;;26.80;20.65;;;28.10;54.90;;;;;;1861067;77;21147;-72
2021/12/13 09:18:54;;;;;;;22.87;20.37;;;28.00;55.20;;;;;;1851371;75;21171;-73
2021/12/13 09:21:25;;;;;;;25.90;19.82;;;28.00;55.20;;;;;;1862840;77;21142;-72
2021/12/13 09:23:57;;;;;;;23.65;19.98;;;27.90;55.50;;;;;;1851535;75;21119;-72
2021/12/13 09:26:28;;;;;;;26.07;20.37;;;27.90;55.40;;;;;;1861149;75;21610;-72
2021/12/13 09:29:01;;;;;;;24.25;18.85;;;27.80;55.40;;;;;;1856984;75;21252;-72
2021/12/13 09:31:34;;;;;;;22.55;18.92;;;27.80;55.50;;;;;;1812330;79;21580;-73
2021/12/13 09:34:08;;;;;;;25.15;20.32;;;27.80;55.20;;;;;;1865004;75;21135;-73
2021/12/13 09:36:40;;;;;;;22.35;19.92;;;27.70;55.70;;;;;;1864342;76;21591;-72
2021/12/13 09:39:17;;;;;;;25.65;19.98;;;27.60;55.70;;;;;;1837594;76;21163;-73
2021/12/13 09:41:48;;;;;;;26.90;18.77;;;27.60;55.90;;;;;;1858950;76;21147;-73
2021/12/13 09:44:24;;;;;;;21.52;18.95;;;27.50;56.30;;;;;;1864204;76;21171;-73
2021/12/13 09:46:57;;;;;;;23.05;19.50;;;27.40;56.60;;;;;;1865781;75;21079;-72
2021/12/13 09:49:29;;;;;;;28.10;20.55;;;27.40;56.80;;;;;;1853321;76;21147;-72
2021/12/13 09:52:02;;;;;;;25.77;19.62;;;27.40;56.90;;;;;;1866630;75;21052;-72
2021/12/13 09:54:35;;;;;;;26.55;19.90;;;27.30;56.90;;;;;;1862583;75;21205;-72
2021/12/13 09:57:11;;;;;;;27.80;21.47;;;27.30;57.10;;;;;;1871160;76;21209;-73
2021/12/13 09:59:47;;;;;;;27.17;21.55;;;27.20;57.00;;;;;;1857623;75;21181;-72
2021/12/13 10:02:22;;;;;;;27.00;22.22;;;27.20;57.20;;;;;;1881151;75;21189;-71
2021/12/13 10:04:55;;;;;;;;;;;27.20;57.30;;;;;;1880980;76;21113;-72
2021/12/13 10:07:30;;;;;;;29.10;21.60;;;27.10;57.20;;;;;;1873692;75;20678;-72
2021/12/13 10:10:04;;;;;;;28.70;23.35;;;27.10;57.40;;;;;;1869581;76;21088;-71
2021/12/13 10:12:43;;;;;;;28.05;22.37;;;27.10;57.50;;;;;;1874220;76;21072;-72
2021/12/13 10:15:16;;;;;;;26.37;21.82;;;27.10;57.70;;;;;;1875239;75;21236;-72
2021/12/13 10:17:53;;;;;;;29.73;22.83;;;27.00;57.80;;;;;;1876586;75;21158;-72
2021/12/13 10:20:28;;;;;;;26.37;20.37;;;27.00;58.10;;;;;;1876602;76;21138;-73
2021/12/13 10:23:02;;;;;;;26.35;20.45;;;27.00;58.20;;;;;;1873715;76;21154;-73
2021/12/13 10:25:38;;;;;;;30.25;21.35;;;26.90;58.20;;;;;;1862897;76;21128;-73
2021/12/13 10:28:14;;;;;;;26.00;21.40;;;26.90;58.30;;;;;;1878434;76;21634;-73
2021/12/13 10:30:49;;;;;;;29.90;21.55;;;26.90;58.40;;;;;;1875317;76;21229;-73
2021/12/13 10:33:24;;;;;;;28.85;22.40;;;26.80;58.60;;;;;;1876093;76;21165;-86
2021/12/13 10:36:01;;;;;;;31.20;23.27;;;26.80;58.70;;;;;;1881403;76;21189;-88
2021/12/13 10:38:36;;;;;;;37.42;25.00;;;26.70;58.80;;;;;;1879346;76;21269;-86
2021/12/13 10:41:09;;;;;;;29.20;22.22;;;26.70;59.70;;;;;;1868605;76;21123;-86
2021/12/13 10:43:47;;;;;;;30.25;23.07;;;26.70;59.00;;;;;;1872141;76;21087;-87
2021/12/13 10:46:21;;;;;;;28.27;22.67;;;26.70;59.20;;;;;;1885419;75;21273;-87
2021/12/13 10:48:55;;;;;;;35.68;23.00;;;26.60;59.30;;;;;;1877484;76;21167;-87
2021/12/13 10:51:28;;;;;;;29.20;21.97;;;26.60;59.40;;;;;;1881174;76;21123;-86
2021/12/13 10:54:01;;;;;;;29.10;23.27;;;26.60;59.60;;;;;;1881179;76;21139;-87
2021/12/13 10:56:34;;;;;;;29.85;22.82;;;26.50;59.70;;;;;;1878119;76;21092;-87
2021/12/13 10:59:10;;;;;;;32.48;23.70;;;26.50;59.90;;;;;;1869469;76;21193;-86
2021/12/13 11:01:43;;;;;;;31.17;23.12;;;26.50;60.00;;;;;;1882626;76;21154;-87
2021/12/13 11:04:16;;;;;;;28.25;23.60;;;26.50;60.40;;;;;;1868441;75;21219;-87
2021/12/13 11:06:57;;;;;;;27.60;22.65;;;26.50;60.50;;;;;;1830224;78;21152;-87
2021/12/13 11:09:34;;;;;;;31.42;23.05;;;26.40;60.60;;;;;;1882999;75;21107;-88
2021/12/13 11:12:07;;;;;;;29.37;23.45;;;26.40;60.80;;;;;;1876693;76;21116;-87
2021/12/13 11:14:41;;;;;;;30.45;23.52;;;26.40;61.00;;;;;;1829161;77;21118;-86
2021/12/13 11:17:15;;;;;;;30.10;23.57;;;26.40;61.30;;;;;;1888756;75;21096;-88
2021/12/13 11:19:48;;;;;;;33.38;24.52;;;26.30;61.40;;;;;;1890584;75;21119;-88
2021/12/13 11:22:21;;;;;;;30.45;24.95;;;26.30;61.60;;;;;;1879641;75;21186;-88
2021/12/13 11:24:55;;;;;;;48.60;32.88;;;26.30;61.90;;;;;;1886920;75;21068;-87
2021/12/13 11:27:30;;;;;;;40.05;28.42;;;26.20;62.10;;;;;;1885790;75;21091;-89
2021/12/13 11:30:03;;;;;;;38.15;26.95;;;26.20;62.30;;;;;;1898738;75;21138;-88
2021/12/13 11:32:40;;;;;;;34.05;25.08;;;26.20;62.50;;;;;;1881962;76;21277;-88
2021/12/13 11:35:11;;;;;;;37.28;25.37;;;26.20;62.70;;;;;;1875043;76;21162;-90
2021/12/13 11:37:43;;;;;;;45.58;33.53;;;26.10;62.70;;;;;;1839680;76;21151;-88
2021/12/13 11:40:15;;;;;;;36.35;28.90;;;26.20;63.00;;;;;;1829423;77;21185;-88
2021/12/13 11:42:47;;;;;;;38.55;27.98;;;26.10;63.00;;;;;;1873102;75;21123;-90
2021/12/13 11:45:21;;;;;;;39.55;27.25;;;26.00;64.10;;;;;;1874376;75;21201;-88
2021/12/13 11:47:54;;;;;;;40.40;28.73;;;26.00;63.40;;;;;;1877965;75;21129;-88
2021/12/13 11:50:28;;;;;;;41.28;28.52;;;26.00;63.40;;;;;;1880719;75;21176;-91
2021/12/13 11:53:11;;;;;;;40.65;29.10;;;26.00;63.60;;;;;;1870944;75;21699;-88
2021/12/13 11:55:50;;;;;;;50.08;31.95;;;25.90;63.70;;;;;;1863742;75;21232;-88
2021/12/13 11:58:24;;;;;;;37.98;28.83;;;25.90;63.90;;;;;;1878901;76;21578;-88
2021/12/13 12:01:02;;;;;;;39.38;28.12;;;25.90;64.20;;;;;;1875712;75;21217;-91
2021/12/13 12:03:52;;;;;;;37.83;29.05;;;25.90;64.20;;;;;;1824062;76;21734;-88
2021/12/13 12:06:36;;;;;;;36.83;28.77;;;25.90;64.30;;;;;;1846746;76;21259;-88
2021/12/13 12:08:59;;;;;;;39.15;29.32;;;25.80;64.50;;;;;;1856466;76;21636;-88
2021/12/13 12:11:35;;;;;;;42.48;29.65;;;25.80;64.80;;;;;;1886582;75;21138;-90
2021/12/13 12:14:10;;;;;;;41.10;29.48;;;25.80;65.10;;;;;;1853087;76;21079;-90
2021/12/13 12:16:43;;;;;;;40.35;28.90;;;25.80;65.10;;;;;;1852688;76;21212;-89
2021/12/13 12:19:17;;;;;;;44.65;30.68;;;25.80;65.30;;;;;;1858930;76;21201;-89
2021/12/13 12:21:48;;;;;;;45.00;30.37;;;25.80;65.60;;;;;;1850656;76;21091;-89
2021/12/13 12:24:21;;;;;;;39.83;29.45;;;25.70;65.80;;;;;;1863635;76;21133;-90
2021/12/13 12:26:54;;;;;;;43.87;32.33;;;25.70;66.10;;;;;;1860404;76;21123;-88
2021/12/13 12:29:27;;;;;;;51.05;33.15;;;25.70;66.20;;;;;;1861798;76;21141;-89
2021/12/13 12:32:04;;;;;;;43.42;31.80;;;25.60;66.30;;;;;;1857693;76;21044;-88
2021/12/13 12:34:42;;;;;;;50.25;34.30;;;25.60;66.50;;;;;;1858886;76;21220;-89
2021/12/13 12:37:21;;;;;;;49.40;32.88;;;25.50;66.60;;;;;;1864674;76;21126;-89
2021/12/13 12:39:58;;;;;;;51.08;34.27;;;25.50;66.90;;;;;;1863524;76;21164;-88
2021/12/13 12:42:30;;;;;;;49.60;33.63;;;25.40;67.00;;;;;;1864697;75;21094;-88
2021/12/13 12:45:05;;;;;;;46.40;32.13;;;25.40;67.30;;;;;;1857696;76;21150;-90
2021/12/13 12:47:38;;;;;;;39.75;30.27;;;25.40;67.70;;;;;;1855353;75;21188;-90
2021/12/13 12:50:19;;;;;;;38.48;29.60;;;25.30;67.70;;;;;;1859216;76;21247;-89
2021/12/13 12:52:59;;;;;;;43.52;30.85;;;25.30;67.80;;;;;;1869447;75;21180;-89
2021/12/13 12:55:38;;;;;;;40.28;29.35;;;25.30;67.90;;;;;;1852908;76;21153;-90
2021/12/13 12:58:08;;;;;;;41.92;30.88;;;25.30;68.10;;;;;;1858899;76;21075;-90
2021/12/13 13:00:43;;;;;;;47.15;33.20;;;25.20;68.10;;;;;;1846836;76;21150;-87